Portada
METAR-TAF:

METAR-TAF

Aeroports :

Aizawl, Índia

latitud: 23-50-18N, longitud: 92-37-13E, altitud: 405 m

Observació

L'informe es va fer fa 8 hores i 3 minuts, a les 12:00 UTC
Vent calma
Temperatura 26°C
Humitat 89%
Pressió 1009 hPa
Visibilitat: 4000 m
Núvols disperses a una alçada de 1800 ft
Cel ennuvolat a una alçada de 10000 ft
boirina

METAR: VELP 231200Z 00000KT 4000 BR SCT018 BKN100 26/24 Q1009 NOSIG

Hora: 01:33 (20:03 UTC)

Pronòstic

L'informe es va fer fa 12 hores i 3 minuts, a les 08:00 UTC
Pronòstic vàlid del 23 a les 09 UTC al 23 a les 18 UTC
Vent 5 kt del Sud/Sud-Est
Visibilitat: 3000 m
Escasses núvols a una alçada de 800 ft
Núvols disperses a una alçada de 1600 ft
Escasses núvols a una alçada de 3000 ft, Cumulonimbus.
Cel ennuvolat a una alçada de 10000 ft
pluja, boirina

TAF: VELP 230800Z 2309/2318 16005KT 3000 -RA BR FEW008 SCT016 FEW030CB BKN100

Observacions i pronòstics meteorològics de més de 4000 aeroports (METAR i TAF).

Les estacions disponibles són els punts grocs i vermells al mapa.

Posi el ratolí al punt desitjat per veure el nom de l'estació.

Feu clic per veure les observacions i els pronòstics meteorològics.

Per canviar el mapa: feu clic els botons verds amb una creu de color negre per apropar; al botó verd amb un guió per allunyar la imatge; o en les fletxes verdes per a mapes adjacents.


METAR-TAF: